sensor_id;sensor_type;location;lat;lon;timestamp;temperature;humidity
70421;SHT31;57848;51.938;15.520;2023-07-08T00:01:54;20.69;51.52
70421;SHT31;57848;51.938;15.520;2023-07-08T00:04:19;20.70;51.52
70421;SHT31;57848;51.938;15.520;2023-07-08T00:06:44;20.66;51.65
70421;SHT31;57848;51.938;15.520;2023-07-08T00:09:10;20.69;51.77
70421;SHT31;57848;51.938;15.520;2023-07-08T00:11:37;20.64;51.97
70421;SHT31;57848;51.938;15.520;2023-07-08T00:14:02;20.67;51.63
70421;SHT31;57848;51.938;15.520;2023-07-08T00:16:28;20.62;51.89
70421;SHT31;57848;51.938;15.520;2023-07-08T00:18:53;20.57;52.07
70421;SHT31;57848;51.938;15.520;2023-07-08T00:21:18;20.56;52.10
70421;SHT31;57848;51.938;15.520;2023-07-08T00:23:48;20.52;52.20
70421;SHT31;57848;51.938;15.520;2023-07-08T00:26:25;20.56;52.19
70421;SHT31;57848;51.938;15.520;2023-07-08T00:28:52;20.56;52.35
70421;SHT31;57848;51.938;15.520;2023-07-08T00:31:19;20.55;52.33
70421;SHT31;57848;51.938;15.520;2023-07-08T00:33:55;20.52;52.91
70421;SHT31;57848;51.938;15.520;2023-07-08T00:36:22;20.50;52.97
70421;SHT31;57848;51.938;15.520;2023-07-08T00:38:48;20.45;52.74
70421;SHT31;57848;51.938;15.520;2023-07-08T00:41:21;20.43;52.89
70421;SHT31;57848;51.938;15.520;2023-07-08T00:43:50;20.40;52.97
70421;SHT31;57848;51.938;15.520;2023-07-08T00:46:24;20.37;52.97
70421;SHT31;57848;51.938;15.520;2023-07-08T00:51:33;20.39;53.04
70421;SHT31;57848;51.938;15.520;2023-07-08T00:53:58;20.36;53.05
70421;SHT31;57848;51.938;15.520;2023-07-08T00:56:25;20.39;53.11
70421;SHT31;57848;51.938;15.520;2023-07-08T00:58:58;20.33;53.26
70421;SHT31;57848;51.938;15.520;2023-07-08T01:01:25;20.30;53.35
70421;SHT31;57848;51.938;15.520;2023-07-08T01:03:58;20.22;53.68
70421;SHT31;57848;51.938;15.520;2023-07-08T01:06:26;20.24;53.61
70421;SHT31;57848;51.938;15.520;2023-07-08T01:08:58;20.26;53.61
70421;SHT31;57848;51.938;15.520;2023-07-08T01:11:29;20.19;53.52
70421;SHT31;57848;51.938;15.520;2023-07-08T01:13:55;20.19;53.61
70421;SHT31;57848;51.938;15.520;2023-07-08T01:16:22;20.19;53.65
70421;SHT31;57848;51.938;15.520;2023-07-08T01:18:47;20.16;53.66
70421;SHT31;57848;51.938;15.520;2023-07-08T01:21:36;20.12;53.80
70421;SHT31;57848;51.938;15.520;2023-07-08T01:24:09;20.11;53.86
70421;SHT31;57848;51.938;15.520;2023-07-08T01:26:37;20.14;53.80
70421;SHT31;57848;51.938;15.520;2023-07-08T01:29:04;20.08;53.91
70421;SHT31;57848;51.938;15.520;2023-07-08T01:31:29;20.06;53.97
70421;SHT31;57848;51.938;15.520;2023-07-08T01:33:55;20.02;54.38
70421;SHT31;57848;51.938;15.520;2023-07-08T01:36:22;20.05;54.16
70421;SHT31;57848;51.938;15.520;2023-07-08T01:38:48;19.98;54.35
70421;SHT31;57848;51.938;15.520;2023-07-08T01:41:15;19.96;54.16
70421;SHT31;57848;51.938;15.520;2023-07-08T01:43:41;19.98;54.36
70421;SHT31;57848;51.938;15.520;2023-07-08T01:46:14;19.96;54.49
70421;SHT31;57848;51.938;15.520;2023-07-08T01:48:42;19.96;54.56
70421;SHT31;57848;51.938;15.520;2023-07-08T01:51:10;19.94;54.58
70421;SHT31;57848;51.938;15.520;2023-07-08T01:53:38;19.89;54.67
70421;SHT31;57848;51.938;15.520;2023-07-08T01:56:06;19.91;54.66
70421;SHT31;57848;51.938;15.520;2023-07-08T01:58:32;19.86;54.71
70421;SHT31;57848;51.938;15.520;2023-07-08T02:00:58;19.84;54.66
70421;SHT31;57848;51.938;15.520;2023-07-08T02:03:23;19.85;54.66
70421;SHT31;57848;51.938;15.520;2023-07-08T02:05:49;19.79;54.65
70421;SHT31;57848;51.938;15.520;2023-07-08T02:08:14;19.78;54.84
70421;SHT31;57848;51.938;15.520;2023-07-08T02:10:41;19.79;54.80
70421;SHT31;57848;51.938;15.520;2023-07-08T02:13:07;19.75;54.71
70421;SHT31;57848;51.938;15.520;2023-07-08T02:15:32;19.71;54.92
70421;SHT31;57848;51.938;15.520;2023-07-08T02:17:58;19.67;55.02
70421;SHT31;57848;51.938;15.520;2023-07-08T02:20:24;19.65;55.07
70421;SHT31;57848;51.938;15.520;2023-07-08T02:22:49;19.63;55.37
70421;SHT31;57848;51.938;15.520;2023-07-08T02:25:14;19.64;55.16
70421;SHT31;57848;51.938;15.520;2023-07-08T02:27:41;19.63;55.17
70421;SHT31;57848;51.938;15.520;2023-07-08T02:30:07;19.57;55.35
70421;SHT31;57848;51.938;15.520;2023-07-08T02:32:34;19.54;55.49
70421;SHT31;57848;51.938;15.520;2023-07-08T02:35:02;19.50;55.68
70421;SHT31;57848;51.938;15.520;2023-07-08T02:37:29;19.51;55.47
70421;SHT31;57848;51.938;15.520;2023-07-08T02:39:55;19.51;55.58
70421;SHT31;57848;51.938;15.520;2023-07-08T02:42:20;19.50;55.50
70421;SHT31;57848;51.938;15.520;2023-07-08T02:44:46;19.51;55.39
70421;SHT31;57848;51.938;15.520;2023-07-08T02:47:11;19.54;55.37
70421;SHT31;57848;51.938;15.520;2023-07-08T02:49:36;19.50;55.47
70421;SHT31;57848;51.938;15.520;2023-07-08T02:52:02;19.49;55.51
70421;SHT31;57848;51.938;15.520;2023-07-08T02:54:28;19.49;55.41
70421;SHT31;57848;51.938;15.520;2023-07-08T02:56:53;19.49;55.44
70421;SHT31;57848;51.938;15.520;2023-07-08T02:59:19;19.50;55.46
70421;SHT31;57848;51.938;15.520;2023-07-08T03:01:44;19.49;55.51
70421;SHT31;57848;51.938;15.520;2023-07-08T03:04:12;19.47;55.60
70421;SHT31;57848;51.938;15.520;2023-07-08T03:06:44;19.44;55.69
70421;SHT31;57848;51.938;15.520;2023-07-08T03:09:11;19.41;55.75
70421;SHT31;57848;51.938;15.520;2023-07-08T03:11:37;19.43;56.15
70421;SHT31;57848;51.938;15.520;2023-07-08T03:14:03;19.40;55.83
70421;SHT31;57848;51.938;15.520;2023-07-08T03:16:28;19.41;55.88
70421;SHT31;57848;51.938;15.520;2023-07-08T03:18:54;19.41;55.78
70421;SHT31;57848;51.938;15.520;2023-07-08T03:21:19;19.44;55.69
70421;SHT31;57848;51.938;15.520;2023-07-08T03:23:47;19.44;55.71
70421;SHT31;57848;51.938;15.520;2023-07-08T03:26:20;19.44;55.69
70421;SHT31;57848;51.938;15.520;2023-07-08T03:28:47;19.47;55.69
70421;SHT31;57848;51.938;15.520;2023-07-08T03:31:14;19.46;55.76
70421;SHT31;57848;51.938;15.520;2023-07-08T03:33:39;19.49;55.83
70421;SHT31;57848;51.938;15.520;2023-07-08T03:36:11;19.47;55.83
70421;SHT31;57848;51.938;15.520;2023-07-08T03:38:37;19.44;56.00
70421;SHT31;57848;51.938;15.520;2023-07-08T03:41:04;19.41;56.28
70421;SHT31;57848;51.938;15.520;2023-07-08T03:43:29;19.40;56.41
70421;SHT31;57848;51.938;15.520;2023-07-08T03:45:55;19.44;56.34
70421;SHT31;57848;51.938;15.520;2023-07-08T03:48:20;19.40;56.32
70421;SHT31;57848;51.938;15.520;2023-07-08T03:50:45;19.41;56.59
70421;SHT31;57848;51.938;15.520;2023-07-08T03:53:11;19.38;56.76
70421;SHT31;57848;51.938;15.520;2023-07-08T03:55:36;19.38;56.76
70421;SHT31;57848;51.938;15.520;2023-07-08T03:58:03;19.43;56.87
70421;SHT31;57848;51.938;15.520;2023-07-08T04:00:31;19.40;56.98
70421;SHT31;57848;51.938;15.520;2023-07-08T04:02:59;19.38;57.34
70421;SHT31;57848;51.938;15.520;2023-07-08T04:05:25;19.37;57.56
70421;SHT31;57848;51.938;15.520;2023-07-08T04:07:51;19.37;57.84
70421;SHT31;57848;51.938;15.520;2023-07-08T04:10:16;19.37;58.06
70421;SHT31;57848;51.938;15.520;2023-07-08T04:12:42;19.38;58.10
70421;SHT31;57848;51.938;15.520;2023-07-08T04:15:08;19.36;58.34
70421;SHT31;57848;51.938;15.520;2023-07-08T04:17:37;19.30;58.74
70421;SHT31;57848;51.938;15.520;2023-07-08T04:20:06;19.34;58.78
70421;SHT31;57848;51.938;15.520;2023-07-08T04:22:31;19.33;58.90
70421;SHT31;57848;51.938;15.520;2023-07-08T04:24:56;19.31;59.49
70421;SHT31;57848;51.938;15.520;2023-07-08T04:27:22;19.31;59.13
70421;SHT31;57848;51.938;15.520;2023-07-08T04:29:47;19.31;59.66
70421;SHT31;57848;51.938;15.520;2023-07-08T04:32:13;19.38;59.52
70421;SHT31;57848;51.938;15.520;2023-07-08T04:34:38;19.43;59.65
70421;SHT31;57848;51.938;15.520;2023-07-08T04:37:04;19.51;59.21
70421;SHT31;57848;51.938;15.520;2023-07-08T04:39:32;19.54;59.24
70421;SHT31;57848;51.938;15.520;2023-07-08T04:41:57;19.56;59.47
70421;SHT31;57848;51.938;15.520;2023-07-08T04:44:22;19.77;58.49
70421;SHT31;57848;51.938;15.520;2023-07-08T04:46:51;19.88;57.97
70421;SHT31;57848;51.938;15.520;2023-07-08T04:49:20;19.88;58.26
70421;SHT31;57848;51.938;15.520;2023-07-08T04:51:46;19.92;58.63
70421;SHT31;57848;51.938;15.520;2023-07-08T04:54:11;19.99;57.83
70421;SHT31;57848;51.938;15.520;2023-07-08T04:56:39;20.09;57.67
70421;SHT31;57848;51.938;15.520;2023-07-08T04:59:07;20.08;57.77
70421;SHT31;57848;51.938;15.520;2023-07-08T05:01:32;20.14;57.14
70421;SHT31;57848;51.938;15.520;2023-07-08T05:03:59;20.15;56.88
70421;SHT31;57848;51.938;15.520;2023-07-08T05:06:24;20.21;57.39
70421;SHT31;57848;51.938;15.520;2023-07-08T05:08:50;20.28;57.29
70421;SHT31;57848;51.938;15.520;2023-07-08T05:11:15;20.19;57.84
70421;SHT31;57848;51.938;15.520;2023-07-08T05:13:40;20.22;57.78
70421;SHT31;57848;51.938;15.520;2023-07-08T05:16:06;20.22;57.70
70421;SHT31;57848;51.938;15.520;2023-07-08T05:18:31;20.25;58.14
70421;SHT31;57848;51.938;15.520;2023-07-08T05:20:56;20.25;58.51
70421;SHT31;57848;51.938;15.520;2023-07-08T05:23:22;20.25;58.87
70421;SHT31;57848;51.938;15.520;2023-07-08T05:25:47;20.26;58.75
70421;SHT31;57848;51.938;15.520;2023-07-08T05:28:13;20.40;58.01
70421;SHT31;57848;51.938;15.520;2023-07-08T05:30:40;20.50;57.57
70421;SHT31;57848;51.938;15.520;2023-07-08T05:33:06;20.50;58.02
70421;SHT31;57848;51.938;15.520;2023-07-08T05:35:31;20.57;58.05
70421;SHT31;57848;51.938;15.520;2023-07-08T05:37:56;20.60;57.90
70421;SHT31;57848;51.938;15.520;2023-07-08T05:40:22;20.67;57.78
70421;SHT31;57848;51.938;15.520;2023-07-08T05:42:47;20.74;56.79
70421;SHT31;57848;51.938;15.520;2023-07-08T05:45:12;20.80;56.10
70421;SHT31;57848;51.938;15.520;2023-07-08T05:47:38;20.86;56.18
70421;SHT31;57848;51.938;15.520;2023-07-08T05:50:04;20.90;56.45
70421;SHT31;57848;51.938;15.520;2023-07-08T05:52:29;20.91;56.71
70421;SHT31;57848;51.938;15.520;2023-07-08T05:54:54;21.00;56.43
70421;SHT31;57848;51.938;15.520;2023-07-08T05:57:20;21.08;56.66
70421;SHT31;57848;51.938;15.520;2023-07-08T05:59:46;21.17;56.67
70421;SHT31;57848;51.938;15.520;2023-07-08T06:02:12;21.25;56.66
70421;SHT31;57848;51.938;15.520;2023-07-08T06:04:38;21.31;56.47
70421;SHT31;57848;51.938;15.520;2023-07-08T06:07:04;21.39;56.78
70421;SHT31;57848;51.938;15.520;2023-07-08T06:09:29;21.48;56.41
70421;SHT31;57848;51.938;15.520;2023-07-08T06:11:55;21.58;56.57
70421;SHT31;57848;51.938;15.520;2023-07-08T06:14:20;21.73;55.55
70421;SHT31;57848;51.938;15.520;2023-07-08T06:16:45;21.83;55.19
70421;SHT31;57848;51.938;15.520;2023-07-08T06:19:11;21.93;55.32
70421;SHT31;57848;51.938;15.520;2023-07-08T06:21:37;22.00;55.64
70421;SHT31;57848;51.938;15.520;2023-07-08T06:24:02;22.23;54.38
70421;SHT31;57848;51.938;15.520;2023-07-08T06:26:28;22.30;54.17
70421;SHT31;57848;51.938;15.520;2023-07-08T06:28:53;22.43;53.84
70421;SHT31;57848;51.938;15.520;2023-07-08T06:31:19;22.51;53.88
70421;SHT31;57848;51.938;15.520;2023-07-08T06:33:44;22.64;52.86
70421;SHT31;57848;51.938;15.520;2023-07-08T06:36:09;22.74;52.74
70421;SHT31;57848;51.938;15.520;2023-07-08T06:38:35;22.84;53.28
70421;SHT31;57848;51.938;15.520;2023-07-08T06:41:00;23.03;51.55
70421;SHT31;57848;51.938;15.520;2023-07-08T06:43:25;23.13;50.74
70421;SHT31;57848;51.938;15.520;2023-07-08T06:45:59;23.26;50.66
70421;SHT31;57848;51.938;15.520;2023-07-08T06:48:25;23.39;50.21
70421;SHT31;57848;51.938;15.520;2023-07-08T06:50:50;23.47;51.44
70421;SHT31;57848;51.938;15.520;2023-07-08T06:53:16;23.60;50.77
70421;SHT31;57848;51.938;15.520;2023-07-08T06:55:44;23.70;50.13
70421;SHT31;57848;51.938;15.520;2023-07-08T06:58:09;23.84;49.84
70421;SHT31;57848;51.938;15.520;2023-07-08T07:00:34;23.97;49.91
70421;SHT31;57848;51.938;15.520;2023-07-08T07:03:00;24.10;49.84
70421;SHT31;57848;51.938;15.520;2023-07-08T07:05:25;24.14;49.65
70421;SHT31;57848;51.938;15.520;2023-07-08T07:07:50;24.17;49.83
70421;SHT31;57848;51.938;15.520;2023-07-08T07:10:18;24.26;50.25
70421;SHT31;57848;51.938;15.520;2023-07-08T07:12:43;24.41;48.88
70421;SHT31;57848;51.938;15.520;2023-07-08T07:15:09;24.45;49.58
70421;SHT31;57848;51.938;15.520;2023-07-08T07:17:34;24.47;48.96
70421;SHT31;57848;51.938;15.520;2023-07-08T07:20:01;24.58;48.01
70421;SHT31;57848;51.938;15.520;2023-07-08T07:22:27;24.72;48.10
70421;SHT31;57848;51.938;15.520;2023-07-08T07:24:53;24.91;50.04
70421;SHT31;57848;51.938;15.520;2023-07-08T07:27:19;24.94;49.19
70421;SHT31;57848;51.938;15.520;2023-07-08T07:29:46;25.06;50.68
70421;SHT31;57848;51.938;15.520;2023-07-08T07:32:13;25.04;50.51
70421;SHT31;57848;51.938;15.520;2023-07-08T07:34:39;25.10;48.87
70421;SHT31;57848;51.938;15.520;2023-07-08T07:37:06;25.21;45.61
70421;SHT31;57848;51.938;15.520;2023-07-08T07:39:31;25.24;46.18
70421;SHT31;57848;51.938;15.520;2023-07-08T07:41:57;25.30;45.94
70421;SHT31;57848;51.938;15.520;2023-07-08T07:44:22;25.30;44.67
70421;SHT31;57848;51.938;15.520;2023-07-08T07:46:47;25.33;45.07
70421;SHT31;57848;51.938;15.520;2023-07-08T07:49:13;25.38;44.22
70421;SHT31;57848;51.938;15.520;2023-07-08T07:51:39;25.41;44.74
70421;SHT31;57848;51.938;15.520;2023-07-08T07:54:04;25.41;44.69
70421;SHT31;57848;51.938;15.520;2023-07-08T07:56:29;25.44;44.68
70421;SHT31;57848;51.938;15.520;2023-07-08T07:58:55;25.51;43.89
70421;SHT31;57848;51.938;15.520;2023-07-08T08:01:20;25.52;45.00
70421;SHT31;57848;51.938;15.520;2023-07-08T08:03:46;25.58;45.01
70421;SHT31;57848;51.938;15.520;2023-07-08T08:06:11;25.74;45.20
70421;SHT31;57848;51.938;15.520;2023-07-08T08:08:37;25.84;45.94
70421;SHT31;57848;51.938;15.520;2023-07-08T08:11:02;25.89;45.45
70421;SHT31;57848;51.938;15.520;2023-07-08T08:13:28;25.90;46.29
70421;SHT31;57848;51.938;15.520;2023-07-08T08:15:57;26.12;44.15
70421;SHT31;57848;51.938;15.520;2023-07-08T08:18:23;26.03;45.60
70421;SHT31;57848;51.938;15.520;2023-07-08T08:20:50;26.03;44.86
70421;SHT31;57848;51.938;15.520;2023-07-08T08:23:16;26.00;44.97
70421;SHT31;57848;51.938;15.520;2023-07-08T08:25:41;26.16;44.80
70421;SHT31;57848;51.938;15.520;2023-07-08T08:28:06;26.23;46.54
70421;SHT31;57848;51.938;15.520;2023-07-08T08:30:32;26.26;45.71
70421;SHT31;57848;51.938;15.520;2023-07-08T08:32:57;26.32;41.66
70421;SHT31;57848;51.938;15.520;2023-07-08T08:35:22;26.23;41.74
70421;SHT31;57848;51.938;15.520;2023-07-08T08:37:48;26.25;43.25
70421;SHT31;57848;51.938;15.520;2023-07-08T08:40:16;26.19;45.01
70421;SHT31;57848;51.938;15.520;2023-07-08T08:42:51;26.23;45.99
70421;SHT31;57848;51.938;15.520;2023-07-08T08:45:19;26.30;42.68
70421;SHT31;57848;51.938;15.520;2023-07-08T08:47:49;26.47;41.69
70421;SHT31;57848;51.938;15.520;2023-07-08T08:50:32;26.54;42.42
70421;SHT31;57848;51.938;15.520;2023-07-08T08:53:01;26.56;42.07
70421;SHT31;57848;51.938;15.520;2023-07-08T08:55:28;26.61;43.02
70421;SHT31;57848;51.938;15.520;2023-07-08T08:58:18;26.60;40.79
70421;SHT31;57848;51.938;15.520;2023-07-08T09:01:02;26.57;43.38
70421;SHT31;57848;51.938;15.520;2023-07-08T09:03:36;26.71;39.21
70421;SHT31;57848;51.938;15.520;2023-07-08T09:06:19;26.60;39.34
70421;SHT31;57848;51.938;15.520;2023-07-08T09:08:45;26.80;40.07
70421;SHT31;57848;51.938;15.520;2023-07-08T09:11:45;26.76;41.66
70421;SHT31;57848;51.938;15.520;2023-07-08T09:14:28;26.73;43.44
70421;SHT31;57848;51.938;15.520;2023-07-08T09:19:43;26.70;41.88
70421;SHT31;57848;51.938;15.520;2023-07-08T09:27:19;27.26;40.95
70421;SHT31;57848;51.938;15.520;2023-07-08T09:29:46;27.28;40.72
70421;SHT31;57848;51.938;15.520;2023-07-08T09:32:18;27.35;39.82
70421;SHT31;57848;51.938;15.520;2023-07-08T09:34:47;27.52;39.33
70421;SHT31;57848;51.938;15.520;2023-07-08T09:37:30;27.57;39.40
70421;SHT31;57848;51.938;15.520;2023-07-08T09:39:59;27.65;37.10
70421;SHT31;57848;51.938;15.520;2023-07-08T09:42:28;27.71;35.33
70421;SHT31;57848;51.938;15.520;2023-07-08T09:44:56;27.82;36.92
70421;SHT31;57848;51.938;15.520;2023-07-08T09:47:28;27.80;37.07
70421;SHT31;57848;51.938;15.520;2023-07-08T09:49:57;27.82;37.17
70421;SHT31;57848;51.938;15.520;2023-07-08T09:52:22;27.94;38.62
70421;SHT31;57848;51.938;15.520;2023-07-08T09:54:49;28.08;39.15
70421;SHT31;57848;51.938;15.520;2023-07-08T09:59:46;28.47;36.83
70421;SHT31;57848;51.938;15.520;2023-07-08T10:04:55;28.34;36.44
70421;SHT31;57848;51.938;15.520;2023-07-08T10:07:22;28.41;37.60
70421;SHT31;57848;51.938;15.520;2023-07-08T10:09:52;28.49;38.10
70421;SHT31;57848;51.938;15.520;2023-07-08T10:12:19;28.54;37.29
70421;SHT31;57848;51.938;15.520;2023-07-08T10:14:49;28.61;37.67
70421;SHT31;57848;51.938;15.520;2023-07-08T10:17:17;28.75;36.06
70421;SHT31;57848;51.938;15.520;2023-07-08T10:19:44;28.62;37.30
70421;SHT31;57848;51.938;15.520;2023-07-08T10:22:26;28.55;34.81
70421;SHT31;57848;51.938;15.520;2023-07-08T10:25:11;28.56;34.77
70421;SHT31;57848;51.938;15.520;2023-07-08T10:27:46;28.82;37.03
70421;SHT31;57848;51.938;15.520;2023-07-08T10:30:21;29.12;35.02
70421;SHT31;57848;51.938;15.520;2023-07-08T10:33:23;29.23;35.23
70421;SHT31;57848;51.938;15.520;2023-07-08T10:38:40;30.00;32.32
70421;SHT31;57848;51.938;15.520;2023-07-08T10:41:26;29.81;33.73
70421;SHT31;57848;51.938;15.520;2023-07-08T10:46:45;32.60;30.29
70421;SHT31;57848;51.938;15.520;2023-07-08T10:52:02;34.48;27.92
70421;SHT31;57848;51.938;15.520;2023-07-08T10:54:41;35.88;27.43
70421;SHT31;57848;51.938;15.520;2023-07-08T10:57:47;36.39;26.44
70421;SHT31;57848;51.938;15.520;2023-07-08T11:00:29;37.23;26.64
70421;SHT31;57848;51.938;15.520;2023-07-08T11:05:43;37.95;25.70
70421;SHT31;57848;51.938;15.520;2023-07-08T11:14:56;38.83;23.54
70421;SHT31;57848;51.938;15.520;2023-07-08T11:17:27;39.04;24.50
70421;SHT31;57848;51.938;15.520;2023-07-08T11:22:26;37.69;24.06
70421;SHT31;57848;51.938;15.520;2023-07-08T11:24:55;37.69;24.43
70421;SHT31;57848;51.938;15.520;2023-07-08T11:27:28;37.78;24.74
70421;SHT31;57848;51.938;15.520;2023-07-08T11:30:26;37.23;24.28
70421;SHT31;57848;51.938;15.520;2023-07-08T11:33:02;36.91;24.30
70421;SHT31;57848;51.938;15.520;2023-07-08T11:35:33;37.67;24.47
70421;SHT31;57848;51.938;15.520;2023-07-08T11:38:01;37.78;24.60
70421;SHT31;57848;51.938;15.520;2023-07-08T11:40:28;38.17;23.62
70421;SHT31;57848;51.938;15.520;2023-07-08T11:43:00;39.59;23.02
70421;SHT31;57848;51.938;15.520;2023-07-08T11:45:33;40.60;22.09
70421;SHT31;57848;51.938;15.520;2023-07-08T11:48:12;39.83;21.63
70421;SHT31;57848;51.938;15.520;2023-07-08T11:50:41;40.07;22.22
70421;SHT31;57848;51.938;15.520;2023-07-08T11:53:10;41.12;22.48
70421;SHT31;57848;51.938;15.520;2023-07-08T11:55:46;41.13;20.98
70421;SHT31;57848;51.938;15.520;2023-07-08T11:58:27;40.52;23.01
70421;SHT31;57848;51.938;15.520;2023-07-08T12:03:37;42.45;20.88
70421;SHT31;57848;51.938;15.520;2023-07-08T12:08:52;41.73;20.71
70421;SHT31;57848;51.938;15.520;2023-07-08T12:11:17;40.88;21.52
70421;SHT31;57848;51.938;15.520;2023-07-08T12:13:43;39.28;22.76
70421;SHT31;57848;51.938;15.520;2023-07-08T12:16:11;38.53;22.99
70421;SHT31;57848;51.938;15.520;2023-07-08T12:18:39;37.92;23.98
70421;SHT31;57848;51.938;15.520;2023-07-08T12:21:11;38.77;23.91
70421;SHT31;57848;51.938;15.520;2023-07-08T12:23:44;40.20;23.01
70421;SHT31;57848;51.938;15.520;2023-07-08T12:26:09;40.92;21.69
70421;SHT31;57848;51.938;15.520;2023-07-08T12:28:37;40.96;21.90
70421;SHT31;57848;51.938;15.520;2023-07-08T12:31:13;42.32;21.57
70421;SHT31;57848;51.938;15.520;2023-07-08T12:33:39;41.42;21.20
70421;SHT31;57848;51.938;15.520;2023-07-08T12:36:05;42.37;21.06
70421;SHT31;57848;51.938;15.520;2023-07-08T12:38:33;42.00;21.40
70421;SHT31;57848;51.938;15.520;2023-07-08T12:41:05;41.96;20.84
70421;SHT31;57848;51.938;15.520;2023-07-08T12:43:33;42.05;20.83
70421;SHT31;57848;51.938;15.520;2023-07-08T12:45:59;41.94;21.13
70421;SHT31;57848;51.938;15.520;2023-07-08T12:48:24;43.07;20.28
70421;SHT31;57848;51.938;15.520;2023-07-08T12:50:49;42.10;20.31
70421;SHT31;57848;51.938;15.520;2023-07-08T12:53:15;41.96;20.72
70421;SHT31;57848;51.938;15.520;2023-07-08T12:55:42;43.05;20.12
70421;SHT31;57848;51.938;15.520;2023-07-08T12:58:30;42.37;20.31
70421;SHT31;57848;51.938;15.520;2023-07-08T13:00:57;42.73;20.39
70421;SHT31;57848;51.938;15.520;2023-07-08T13:03:24;42.07;20.27
70421;SHT31;57848;51.938;15.520;2023-07-08T13:05:52;42.49;20.09
70421;SHT31;57848;51.938;15.520;2023-07-08T13:08:21;42.95;19.86
70421;SHT31;57848;51.938;15.520;2023-07-08T13:10:48;41.74;19.77
70421;SHT31;57848;51.938;15.520;2023-07-08T13:13:21;42.38;19.94
70421;SHT31;57848;51.938;15.520;2023-07-08T13:15:47;41.84;20.56
70421;SHT31;57848;51.938;15.520;2023-07-08T13:20:40;42.86;19.08
70421;SHT31;57848;51.938;15.520;2023-07-08T13:23:07;42.41;20.81
70421;SHT31;57848;51.938;15.520;2023-07-08T13:25:33;40.58;21.43
70421;SHT31;57848;51.938;15.520;2023-07-08T13:28:25;40.40;21.99
70421;SHT31;57848;51.938;15.520;2023-07-08T13:31:02;41.83;21.83
70421;SHT31;57848;51.938;15.520;2023-07-08T13:33:32;42.80;19.93
70421;SHT31;57848;51.938;15.520;2023-07-08T13:36:01;42.65;19.75
70421;SHT31;57848;51.938;15.520;2023-07-08T13:38:32;42.38;19.98
70421;SHT31;57848;51.938;15.520;2023-07-08T13:41:00;40.19;21.02
70421;SHT31;57848;51.938;15.520;2023-07-08T13:43:33;39.93;21.86
70421;SHT31;57848;51.938;15.520;2023-07-08T13:46:00;39.01;22.82
70421;SHT31;57848;51.938;15.520;2023-07-08T13:48:33;37.65;23.67
70421;SHT31;57848;51.938;15.520;2023-07-08T13:51:19;37.07;24.64
70421;SHT31;57848;51.938;15.520;2023-07-08T13:53:49;36.48;25.30
70421;SHT31;57848;51.938;15.520;2023-07-08T13:56:23;36.11;25.94
70421;SHT31;57848;51.938;15.520;2023-07-08T13:59:00;36.27;25.15
70421;SHT31;57848;51.938;15.520;2023-07-08T14:01:27;36.90;23.61
70421;SHT31;57848;51.938;15.520;2023-07-08T14:03:55;38.12;23.13
70421;SHT31;57848;51.938;15.520;2023-07-08T14:06:23;38.91;22.12
70421;SHT31;57848;51.938;15.520;2023-07-08T14:08:49;39.25;22.16
70421;SHT31;57848;51.938;15.520;2023-07-08T14:11:14;38.83;21.88
70421;SHT31;57848;51.938;15.520;2023-07-08T14:13:40;39.52;21.73
70421;SHT31;57848;51.938;15.520;2023-07-08T14:16:19;38.22;22.39
70421;SHT31;57848;51.938;15.520;2023-07-08T14:18:47;37.42;23.40
70421;SHT31;57848;51.938;15.520;2023-07-08T14:21:13;37.20;22.86
70421;SHT31;57848;51.938;15.520;2023-07-08T14:23:38;36.22;23.64
70421;SHT31;57848;51.938;15.520;2023-07-08T14:26:09;35.77;23.88
70421;SHT31;57848;51.938;15.520;2023-07-08T14:28:34;35.04;25.30
70421;SHT31;57848;51.938;15.520;2023-07-08T14:30:59;34.88;25.89
70421;SHT31;57848;51.938;15.520;2023-07-08T14:33:25;34.69;25.01
70421;SHT31;57848;51.938;15.520;2023-07-08T14:35:50;34.58;26.23
70421;SHT31;57848;51.938;15.520;2023-07-08T14:38:15;34.31;26.91
70421;SHT31;57848;51.938;15.520;2023-07-08T14:40:42;34.42;26.01
70421;SHT31;57848;51.938;15.520;2023-07-08T14:43:33;34.45;26.01
70421;SHT31;57848;51.938;15.520;2023-07-08T14:46:03;34.34;25.57
70421;SHT31;57848;51.938;15.520;2023-07-08T14:48:29;34.23;25.07
70421;SHT31;57848;51.938;15.520;2023-07-08T14:50:55;34.17;25.55
70421;SHT31;57848;51.938;15.520;2023-07-08T14:53:20;34.05;25.69
70421;SHT31;57848;51.938;15.520;2023-07-08T14:55:48;34.01;26.45
70421;SHT31;57848;51.938;15.520;2023-07-08T14:58:33;33.98;26.63
70421;SHT31;57848;51.938;15.520;2023-07-08T15:01:08;33.86;26.80
70421;SHT31;57848;51.938;15.520;2023-07-08T15:03:36;33.62;26.89
70421;SHT31;57848;51.938;15.520;2023-07-08T15:06:02;33.81;26.89
70421;SHT31;57848;51.938;15.520;2023-07-08T15:08:27;33.70;26.55
70421;SHT31;57848;51.938;15.520;2023-07-08T15:10:53;33.78;26.71
70421;SHT31;57848;51.938;15.520;2023-07-08T15:13:20;33.96;26.82
70421;SHT31;57848;51.938;15.520;2023-07-08T15:15:48;33.86;27.00
70421;SHT31;57848;51.938;15.520;2023-07-08T15:18:15;33.73;26.51
70421;SHT31;57848;51.938;15.520;2023-07-08T15:20:42;33.45;26.38
70421;SHT31;57848;51.938;15.520;2023-07-08T15:23:10;33.14;26.56
70421;SHT31;57848;51.938;15.520;2023-07-08T15:25:36;33.04;26.68
70421;SHT31;57848;51.938;15.520;2023-07-08T15:28:02;33.15;26.58
70421;SHT31;57848;51.938;15.520;2023-07-08T15:30:29;33.04;26.96
70421;SHT31;57848;51.938;15.520;2023-07-08T15:32:56;32.91;27.59
70421;SHT31;57848;51.938;15.520;2023-07-08T15:35:26;32.63;27.33
70421;SHT31;57848;51.938;15.520;2023-07-08T15:37:56;32.54;28.47
70421;SHT31;57848;51.938;15.520;2023-07-08T15:40:22;32.34;27.22
70421;SHT31;57848;51.938;15.520;2023-07-08T15:42:51;32.37;28.42
70421;SHT31;57848;51.938;15.520;2023-07-08T15:45:22;32.41;27.97
70421;SHT31;57848;51.938;15.520;2023-07-08T15:47:47;32.30;28.66
70421;SHT31;57848;51.938;15.520;2023-07-08T15:50:15;32.17;28.18
70421;SHT31;57848;51.938;15.520;2023-07-08T15:52:41;32.21;28.60
70421;SHT31;57848;51.938;15.520;2023-07-08T15:55:08;32.17;28.88
70421;SHT31;57848;51.938;15.520;2023-07-08T15:57:40;31.99;28.40
70421;SHT31;57848;51.938;15.520;2023-07-08T16:00:12;32.02;28.80
70421;SHT31;57848;51.938;15.520;2023-07-08T16:02:39;31.92;29.36
70421;SHT31;57848;51.938;15.520;2023-07-08T16:05:05;31.93;29.20
70421;SHT31;57848;51.938;15.520;2023-07-08T16:07:30;32.07;28.37